Time;durP1;ratioP1;P1;durP2;ratioP2;P2;SDS_P1;SDS_P2;PMS_P1;PMS_P2;Temp;Humidity;BMP_temperature;BMP_pressure;BME280_temperature;BME280_humidity;BME280_pressure;Samples;Min_cycle;Max_cycle;Signal;HPM_P1;HPM_P2
2021/01/25 00:00:56;;;;;;;16.27;8.57;;;-2.30;99.90;;;;;;5106547;28;20079;-74
2021/01/25 00:03:22;;;;;;;12.48;7.97;;;-2.30;99.90;;;;;;5104974;28;20052;-75
2021/01/25 00:05:49;;;;;;;11.45;7.28;;;-2.30;99.90;;;;;;5105740;28;20036;-75
2021/01/25 00:08:18;;;;;;;12.10;6.93;;;-2.40;99.90;;;;;;5106217;28;20131;-74
2021/01/25 00:10:47;;;;;;;11.77;6.03;;;-2.40;99.90;;;;;;5105685;28;20047;-74
2021/01/25 00:13:13;;;;;;;9.23;6.00;;;-2.40;99.90;;;;;;5107093;28;20048;-74
2021/01/25 00:15:40;;;;;;;8.90;5.78;;;-2.40;99.90;;;;;;5106781;28;20055;-74
2021/01/25 00:18:10;;;;;;;10.57;5.97;;;-2.40;99.90;;;;;;5105882;28;20134;-74
2021/01/25 00:20:39;;;;;;;9.55;5.88;;;-2.50;99.90;;;;;;5095324;28;20055;-74
2021/01/25 00:23:06;;;;;;;8.82;5.90;;;-2.50;99.90;;;;;;5100509;28;20105;-74
2021/01/25 00:25:33;;;;;;;11.93;6.20;;;-2.50;99.90;;;;;;5101875;28;20079;-74
2021/01/25 00:28:01;;;;;;;12.90;5.90;;;-2.50;99.90;;;;;;5103311;28;20423;-74
2021/01/25 00:30:29;;;;;;;7.88;6.13;;;-2.60;99.90;;;;;;5106164;28;20131;-74
2021/01/25 00:32:55;;;;;;;14.68;6.47;;;-2.60;99.90;;;;;;5085898;28;20040;-74
2021/01/25 00:35:24;;;;;;;11.27;6.45;;;-2.60;99.90;;;;;;5106811;28;20405;-74
2021/01/25 00:37:51;;;;;;;11.68;6.57;;;-2.70;99.90;;;;;;5107058;28;20381;-74
2021/01/25 00:40:17;;;;;;;10.98;6.30;;;-2.80;99.90;;;;;;5105218;28;20422;-74
2021/01/25 00:42:44;;;;;;;9.93;6.63;;;-2.80;99.90;;;;;;5087301;28;20147;-73
2021/01/25 00:45:13;;;;;;;10.57;6.32;;;-2.80;99.90;;;;;;5105744;28;20100;-74
2021/01/25 00:47:42;;;;;;;8.95;6.10;;;-2.80;99.90;;;;;;5105732;28;20127;-74
2021/01/25 00:50:09;;;;;;;8.88;6.57;;;-2.70;99.90;;;;;;5105404;28;20540;-74
2021/01/25 00:52:38;;;;;;;13.40;7.22;;;-2.70;99.90;;;;;;5105016;28;20088;-74
2021/01/25 00:55:10;;;;;;;12.25;6.85;;;-2.60;99.90;;;;;;5104556;28;20119;-74
2021/01/25 00:57:38;;;;;;;12.18;6.97;;;-2.60;99.90;;;;;;5105614;28;20043;-75
2021/01/25 01:00:08;;;;;;;10.23;7.10;;;-2.50;99.90;;;;;;5106762;28;20088;-74
2021/01/25 01:02:36;;;;;;;10.40;6.65;;;-2.50;99.90;;;;;;5106916;28;20332;-74
2021/01/25 01:05:05;;;;;;;11.77;6.70;;;-2.50;99.90;;;;;;5104345;28;20441;-74
2021/01/25 01:07:33;;;;;;;9.63;6.93;;;-2.50;99.90;;;;;;5106322;28;20301;-75
2021/01/25 01:10:00;;;;;;;10.60;7.18;;;-2.50;99.90;;;;;;5105473;28;20051;-74
2021/01/25 01:12:26;;;;;;;11.43;6.63;;;-2.50;99.90;;;;;;5104402;28;20119;-75
2021/01/25 01:14:53;;;;;;;11.40;6.70;;;-2.60;99.90;;;;;;5105562;28;20131;-75
2021/01/25 01:17:19;;;;;;;12.52;6.55;;;-2.60;99.90;;;;;;5106762;28;20122;-75
2021/01/25 01:19:46;;;;;;;9.65;6.65;;;-2.60;99.90;;;;;;5084537;28;20150;-74
2021/01/25 01:22:13;;;;;;;9.18;6.25;;;-2.60;99.90;;;;;;5084785;28;20052;-75
2021/01/25 01:24:41;;;;;;;10.45;6.32;;;-2.60;99.90;;;;;;5099066;28;20067;-75
2021/01/25 01:27:10;;;;;;;11.20;7.25;;;-2.60;99.90;;;;;;5101271;28;20132;-74
2021/01/25 01:29:37;;;;;;;15.32;7.32;;;-2.60;99.90;;;;;;5105965;28;20124;-75
2021/01/25 01:32:03;;;;;;;13.80;8.18;;;-2.50;99.90;;;;;;5084982;28;20068;-75
2021/01/25 01:34:34;;;;;;;11.88;7.38;;;-2.60;99.90;;;;;;5104925;28;20071;-75
2021/01/25 01:37:00;;;;;;;12.77;7.82;;;-2.60;99.90;;;;;;5106095;28;20063;-74
2021/01/25 01:39:50;;;;;;;11.10;7.25;;;-2.50;99.90;;;;;;5098139;28;20047;-74
2021/01/25 01:42:20;;;;;;;12.75;8.25;;;-2.50;99.90;;;;;;5097109;28;20084;-75
2021/01/25 01:44:46;;;;;;;14.30;7.65;;;-2.50;99.90;;;;;;5106095;28;20051;-74
2021/01/25 01:47:18;;;;;;;11.80;7.03;;;-2.50;99.90;;;;;;5105276;28;20047;-75
2021/01/25 01:49:48;;;;;;;12.38;8.30;;;-2.50;99.90;;;;;;5104439;28;20119;-74
2021/01/25 01:52:15;;;;;;;10.38;6.88;;;-2.40;99.90;;;;;;5105944;28;20055;-75
2021/01/25 01:54:42;;;;;;;12.88;6.97;;;-2.40;99.90;;;;;;5106216;28;20039;-75
2021/01/25 01:57:10;;;;;;;11.10;7.63;;;-2.40;99.90;;;;;;5105390;28;20042;-74
2021/01/25 01:59:37;;;;;;;12.98;7.50;;;-2.40;99.90;;;;;;5106283;28;20413;-76
2021/01/25 02:02:04;;;;;;;10.85;7.03;;;-2.30;99.90;;;;;;5104661;28;20438;-75
2021/01/25 02:04:34;;;;;;;9.55;6.93;;;-2.20;99.90;;;;;;5104277;28;20054;-75
2021/01/25 02:07:08;;;;;;;7.70;5.78;;;-2.20;99.90;;;;;;5104757;28;20104;-75
2021/01/25 02:09:40;;;;;;;7.75;6.03;;;-2.20;99.90;;;;;;5098169;28;20578;-75
2021/01/25 02:12:09;;;;;;;10.60;6.75;;;-2.20;99.90;;;;;;5092122;28;20071;-75
2021/01/25 02:14:37;;;;;;;8.85;6.15;;;-2.10;99.90;;;;;;5096122;28;20123;-74
2021/01/25 02:17:07;;;;;;;10.88;6.35;;;-2.10;99.90;;;;;;5085685;28;20109;-73
2021/01/25 02:20:02;;;;;;;9.65;5.60;;;-2.00;99.90;;;;;;5092020;28;20052;-75
2021/01/25 02:22:37;;;;;;;11.63;7.07;;;-2.00;99.90;;;;;;5090049;28;20682;-75
2021/01/25 02:25:10;;;;;;;13.80;6.53;;;-2.00;99.90;;;;;;5099348;28;20515;-74
2021/01/25 02:27:37;;;;;;;;;;;-1.90;99.90;;;;;;5105448;28;20135;-74
2021/01/25 02:30:06;;;;;;;7.55;5.95;;;-1.90;99.90;;;;;;5105708;28;20626;-74
2021/01/25 02:32:34;;;;;;;9.20;6.18;;;-1.90;99.90;;;;;;5090616;28;20048;-75
2021/01/25 02:35:04;;;;;;;10.23;6.63;;;-1.90;99.90;;;;;;5103609;28;20394;-75
2021/01/25 02:37:31;;;;;;;11.95;6.40;;;-1.80;99.90;;;;;;5105366;28;20042;-75
2021/01/25 02:40:01;;;;;;;11.23;6.53;;;-1.80;99.90;;;;;;5104288;28;20092;-74
2021/01/25 02:42:30;;;;;;;12.48;7.18;;;-1.80;99.90;;;;;;5104800;28;20056;-74
2021/01/25 02:44:58;;;;;;;11.63;7.18;;;-1.80;99.90;;;;;;5105350;28;20047;-74
2021/01/25 02:47:25;;;;;;;10.35;6.72;;;-1.80;99.90;;;;;;5105342;28;20082;-75
2021/01/25 02:49:53;;;;;;;10.45;6.90;;;-1.80;99.90;;;;;;5100331;28;20047;-75
2021/01/25 02:52:19;;;;;;;11.20;6.95;;;-1.80;99.90;;;;;;5103629;28;20062;-75
2021/01/25 02:54:49;;;;;;;11.13;7.30;;;-1.70;99.90;;;;;;5103148;28;20055;-75
2021/01/25 02:57:19;;;;;;;10.38;7.63;;;-1.80;99.90;;;;;;5103274;28;20505;-74
2021/01/25 02:59:48;;;;;;;14.40;8.52;;;-1.80;99.90;;;;;;5103313;28;20084;-74
2021/01/25 03:02:15;;;;;;;17.75;9.15;;;-1.80;99.90;;;;;;5103272;28;20516;-74
2021/01/25 03:04:44;;;;;;;11.93;8.48;;;-1.90;99.90;;;;;;5083415;28;20052;-74
2021/01/25 03:07:14;;;;;;;12.77;7.97;;;-1.90;99.90;;;;;;5103632;28;20054;-74
2021/01/25 03:09:41;;;;;;;13.07;8.43;;;-1.90;99.90;;;;;;5105335;28;20465;-74
2021/01/25 03:12:08;;;;;;;11.98;7.53;;;-1.90;99.90;;;;;;5100278;28;20044;-74
2021/01/25 03:14:41;;;;;;;11.25;7.15;;;-1.90;99.90;;;;;;5066363;28;20048;-74
2021/01/25 03:17:08;;;;;;;11.20;7.10;;;-1.90;99.90;;;;;;5094500;28;20097;-74
2021/01/25 03:19:34;;;;;;;12.68;6.65;;;-1.90;99.90;;;;;;5084557;28;20044;-75
2021/01/25 03:22:01;;;;;;;10.55;7.72;;;-1.90;99.90;;;;;;5097691;28;20036;-75
2021/01/25 03:24:27;;;;;;;13.63;7.43;;;-1.90;99.90;;;;;;5074969;28;20130;-75
2021/01/25 03:26:54;;;;;;;10.80;7.53;;;-1.90;99.90;;;;;;5101781;28;20083;-75
2021/01/25 03:29:20;;;;;;;10.43;7.78;;;-1.90;99.90;;;;;;5086277;28;20047;-75
2021/01/25 03:31:47;;;;;;;13.48;7.78;;;-1.90;99.90;;;;;;5102677;28;20090;-74
2021/01/25 03:34:16;;;;;;;9.93;7.40;;;-1.90;99.90;;;;;;5084283;28;20094;-76
2021/01/25 03:36:45;;;;;;;10.13;6.50;;;-1.80;99.90;;;;;;5103004;28;20602;-74
2021/01/25 03:39:11;;;;;;;11.63;6.28;;;-1.80;99.90;;;;;;5083306;28;20088;-74
2021/01/25 03:41:37;;;;;;;9.82;6.15;;;-1.80;99.90;;;;;;5101769;28;20101;-74
2021/01/25 03:44:05;;;;;;;8.68;6.80;;;-1.80;99.90;;;;;;5103160;28;20131;-75
2021/01/25 03:46:31;;;;;;;10.10;7.00;;;-1.80;99.90;;;;;;5082557;28;20058;-75
2021/01/25 03:48:58;;;;;;;12.68;7.22;;;-1.80;99.90;;;;;;5094363;28;20147;-74
2021/01/25 03:51:27;;;;;;;11.57;6.47;;;-1.90;99.90;;;;;;5084982;28;20131;-74
2021/01/25 03:53:56;;;;;;;9.90;7.32;;;-1.80;99.90;;;;;;5105834;28;20400;-75
2021/01/25 03:56:22;;;;;;;10.05;7.75;;;-1.80;99.90;;;;;;5106593;28;20047;-75
2021/01/25 03:58:49;;;;;;;9.90;7.53;;;-1.80;99.90;;;;;;5086940;28;20040;-74
2021/01/25 04:01:18;;;;;;;12.73;7.80;;;-1.80;99.90;;;;;;5103186;28;20036;-74
2021/01/25 04:03:47;;;;;;;11.38;7.63;;;-1.80;99.90;;;;;;5093424;28;20036;-75
2021/01/25 04:06:13;;;;;;;10.27;7.60;;;-1.80;99.90;;;;;;5086018;28;20131;-76
2021/01/25 04:08:40;;;;;;;12.93;8.32;;;-1.70;99.90;;;;;;5101491;28;20048;-75
2021/01/25 04:11:09;;;;;;;10.00;6.70;;;-1.70;99.90;;;;;;5096509;28;20056;-76
2021/01/25 04:13:37;;;;;;;11.82;7.38;;;-1.80;99.90;;;;;;5102909;28;20036;-77
2021/01/25 04:16:03;;;;;;;11.57;7.68;;;-1.80;99.90;;;;;;5107312;28;20674;-76
2021/01/25 04:18:33;;;;;;;12.25;7.78;;;-1.90;99.90;;;;;;5089469;28;20105;-78
2021/01/25 04:21:00;;;;;;;11.32;7.75;;;-1.90;99.90;;;;;;5088539;28;20092;-77
2021/01/25 04:23:32;;;;;;;14.75;7.80;;;-1.80;99.90;;;;;;5097042;28;20048;-78
2021/01/25 04:26:01;;;;;;;13.80;9.20;;;-1.80;99.90;;;;;;5105879;28;20040;-77
2021/01/25 04:28:27;;;;;;;13.65;8.52;;;-1.80;99.90;;;;;;5106615;28;20057;-78
2021/01/25 04:30:54;;;;;;;14.05;8.88;;;-1.80;99.90;;;;;;5107404;28;20055;-78
2021/01/25 04:33:22;;;;;;;12.63;8.82;;;-1.80;99.90;;;;;;5106963;28;20075;-76
2021/01/25 04:35:49;;;;;;;11.50;8.20;;;-1.80;99.90;;;;;;5106048;28;20101;-77
2021/01/25 04:38:17;;;;;;;17.63;9.50;;;-1.80;99.90;;;;;;5106874;28;20123;-74
2021/01/25 04:40:44;;;;;;;16.00;9.50;;;-1.80;99.90;;;;;;5105582;28;20071;-74
2021/01/25 04:43:10;;;;;;;16.98;10.20;;;-1.80;99.90;;;;;;5105179;28;20079;-73
2021/01/25 04:45:37;;;;;;;18.10;11.60;;;-1.80;99.90;;;;;;5105602;28;20112;-73
2021/01/25 04:48:05;;;;;;;15.35;10.73;;;-1.80;99.90;;;;;;5105335;28;20122;-73
2021/01/25 04:50:34;;;;;;;18.05;11.63;;;-1.90;99.90;;;;;;5106760;28;20048;-73
2021/01/25 04:53:01;;;;;;;18.10;11.73;;;-1.90;99.90;;;;;;5105266;28;20151;-73
2021/01/25 04:55:32;;;;;;;17.73;10.82;;;-1.90;99.90;;;;;;5106253;28;20557;-73
2021/01/25 04:57:59;;;;;;;18.38;11.23;;;-2.00;99.90;;;;;;5104852;28;20078;-72
2021/01/25 05:00:26;;;;;;;16.75;10.73;;;-1.90;99.90;;;;;;5105363;28;20044;-73
2021/01/25 05:02:52;;;;;;;19.08;12.23;;;-1.90;99.90;;;;;;5105589;28;20097;-72
2021/01/25 05:05:19;;;;;;;20.92;12.95;;;-1.90;99.90;;;;;;5104351;28;20044;-73
2021/01/25 05:07:46;;;;;;;19.73;13.18;;;-1.90;99.90;;;;;;5105236;28;20410;-73
2021/01/25 05:10:13;;;;;;;20.45;13.95;;;-1.90;99.90;;;;;;5106148;28;20044;-73
2021/01/25 05:12:43;;;;;;;27.08;15.95;;;-1.80;99.90;;;;;;5106116;28;20134;-72
2021/01/25 05:15:11;;;;;;;22.58;15.13;;;-1.80;99.90;;;;;;5105090;28;20578;-73
2021/01/25 05:17:37;;;;;;;24.52;15.95;;;-1.80;99.90;;;;;;5105023;28;20039;-73
2021/01/25 05:20:08;;;;;;;24.75;15.48;;;-1.70;99.90;;;;;;5105060;28;20075;-73
2021/01/25 05:22:38;;;;;;;22.67;15.00;;;-1.70;99.90;;;;;;5105134;28;20135;-73
2021/01/25 05:25:08;;;;;;;24.27;15.40;;;-1.70;99.90;;;;;;5104894;28;20366;-73
2021/01/25 05:27:35;;;;;;;24.33;14.07;;;-1.70;99.90;;;;;;5103832;28;20145;-73
2021/01/25 05:30:10;;;;;;;18.08;13.10;;;-1.70;99.90;;;;;;5106777;28;20470;-73
2021/01/25 05:32:47;;;;;;;25.90;15.35;;;-1.60;99.90;;;;;;5106472;28;20051;-73
2021/01/25 05:35:15;;;;;;;29.77;14.00;;;-1.60;99.90;;;;;;5104351;28;20200;-74
2021/01/25 05:37:52;;;;;;;24.17;15.18;;;-1.60;99.90;;;;;;5104202;28;20040;-73
2021/01/25 05:40:21;;;;;;;28.80;15.60;;;-1.60;99.90;;;;;;5104327;28;20078;-73
2021/01/25 05:42:51;;;;;;;29.70;14.95;;;-1.60;99.90;;;;;;5105157;28;20052;-73
2021/01/25 05:45:19;;;;;;;24.13;15.95;;;-1.60;99.90;;;;;;5105308;28;20079;-73
2021/01/25 05:47:54;;;;;;;22.38;13.55;;;-1.60;99.90;;;;;;5105718;28;20044;-73
2021/01/25 05:50:35;;;;;;;22.98;13.60;;;-1.60;99.90;;;;;;5103009;28;20136;-74
2021/01/25 05:53:09;;;;;;;20.33;13.38;;;-1.60;99.90;;;;;;5101941;28;20188;-74
2021/01/25 05:55:36;;;;;;;26.83;15.57;;;-1.70;99.90;;;;;;5104185;28;20082;-73
2021/01/25 05:58:06;;;;;;;22.98;14.52;;;-1.70;99.90;;;;;;5090750;28;20660;-72
2021/01/25 06:00:34;;;;;;;27.02;13.65;;;-1.80;99.90;;;;;;5105972;28;20552;-73
2021/01/25 06:03:02;;;;;;;22.30;14.85;;;-1.90;99.90;;;;;;5104242;28;20456;-73
2021/01/25 06:05:32;;;;;;;24.50;15.73;;;-2.00;99.90;;;;;;5098711;28;20059;-73
2021/01/25 06:08:13;;;;;;;25.92;16.30;;;-2.20;99.90;;;;;;5096610;28;20063;-72
2021/01/25 06:11:02;;;;;;;24.73;14.63;;;-2.30;99.90;;;;;;5094274;28;20126;-72
2021/01/25 06:13:38;;;;;;;25.70;14.25;;;-2.40;99.90;;;;;;5099975;28;20051;-73
2021/01/25 06:16:09;;;;;;;23.38;14.23;;;-2.50;99.90;;;;;;5103926;28;20159;-72
2021/01/25 06:18:37;;;;;;;27.27;14.27;;;-2.40;99.90;;;;;;5100495;28;20043;-73
2021/01/25 06:21:11;;;;;;;24.67;14.15;;;-2.40;99.90;;;;;;5104555;28;20522;-73
2021/01/25 06:23:37;;;;;;;19.35;12.57;;;-2.40;99.90;;;;;;5093991;28;20132;-72
2021/01/25 06:26:06;;;;;;;19.55;12.35;;;-2.30;99.90;;;;;;5104702;28;20055;-73
2021/01/25 06:28:33;;;;;;;23.85;13.90;;;-2.20;99.90;;;;;;5099808;28;20043;-72
2021/01/25 06:31:00;;;;;;;26.50;13.73;;;-2.00;99.90;;;;;;5073434;28;20123;-72
2021/01/25 06:33:37;;;;;;;23.13;13.52;;;-1.90;99.90;;;;;;5105559;28;20051;-73
2021/01/25 06:36:07;;;;;;;21.63;12.57;;;-1.80;99.90;;;;;;5102919;28;20058;-73
2021/01/25 06:38:40;;;;;;;27.10;13.20;;;-1.70;99.90;;;;;;5105597;28;20156;-72
2021/01/25 06:41:13;;;;;;;;;;;-1.60;99.90;;;;;;5104807;28;20050;-74
2021/01/25 06:43:44;;;;;;;;;;;-1.60;99.90;;;;;;5104769;28;20373;-73
2021/01/25 06:46:14;;;;;;;24.80;13.35;;;-1.50;99.90;;;;;;5102906;28;19928;-74
2021/01/25 06:48:45;;;;;;;23.23;13.93;;;-1.50;99.90;;;;;;5093434;28;20056;-75
2021/01/25 06:51:14;;;;;;;22.27;14.35;;;-1.40;99.90;;;;;;5100284;28;20044;-75
2021/01/25 06:53:41;;;;;;;24.00;14.95;;;-1.40;99.90;;;;;;5092736;28;20443;-74
2021/01/25 06:56:08;;;;;;;22.50;13.07;;;-1.50;99.90;;;;;;5101964;28;20101;-73
2021/01/25 06:58:38;;;;;;;18.30;12.73;;;-1.50;99.90;;;;;;5100462;28;20120;-73
2021/01/25 07:01:08;;;;;;;19.40;12.48;;;-1.50;99.90;;;;;;5103468;28;20104;-74
2021/01/25 07:03:51;;;;;;;19.25;13.43;;;-1.50;99.90;;;;;;5105026;28;20072;-74
2021/01/25 07:06:17;;;;;;;23.27;14.40;;;-1.50;99.90;;;;;;5104309;28;20048;-74
2021/01/25 07:08:55;;;;;;;20.98;13.23;;;-1.50;99.90;;;;;;5104247;28;20062;-74
2021/01/25 07:11:26;;;;;;;23.52;13.85;;;-1.50;99.90;;;;;;5103517;28;20047;-74
2021/01/25 07:13:53;;;;;;;20.48;13.35;;;-1.50;99.90;;;;;;5105101;28;20043;-73
2021/01/25 07:16:25;;;;;;;26.02;14.52;;;-1.50;99.90;;;;;;5086645;28;20066;-75
2021/01/25 07:18:53;;;;;;;25.58;15.73;;;-1.40;99.90;;;;;;5103832;28;20625;-73
2021/01/25 07:21:22;;;;;;;23.08;16.08;;;-1.40;99.90;;;;;;5104298;28;20056;-75
2021/01/25 07:23:52;;;;;;;23.92;14.90;;;-1.40;99.90;;;;;;5089454;28;20352;-73
2021/01/25 07:26:21;;;;;;;28.30;16.20;;;-1.40;99.90;;;;;;5088216;28;20466;-74
2021/01/25 07:28:52;;;;;;;27.45;16.20;;;-1.30;99.90;;;;;;5106889;28;20136;-74
2021/01/25 07:31:20;;;;;;;27.23;16.85;;;-1.20;99.90;;;;;;5106831;28;20051;-73
2021/01/25 07:33:46;;;;;;;30.67;16.77;;;-1.20;99.90;;;;;;5107389;28;20669;-73
2021/01/25 07:36:13;;;;;;;30.38;17.13;;;-1.10;99.90;;;;;;5107630;28;20052;-74
2021/01/25 07:38:40;;;;;;;38.08;21.48;;;-1.10;99.90;;;;;;5107391;28;20050;-73
2021/01/25 07:41:07;;;;;;;42.83;22.38;;;-1.10;99.90;;;;;;5097896;28;20044;-74
2021/01/25 07:43:34;;;;;;;58.50;29.50;;;-1.10;99.90;;;;;;5080302;28;20048;-75
2021/01/25 07:46:08;;;;;;;40.92;23.20;;;-1.10;99.90;;;;;;5105262;28;20047;-74
2021/01/25 07:48:49;;;;;;;36.78;21.77;;;-1.10;99.90;;;;;;5109160;28;20052;-73
2021/01/25 07:51:24;;;;;;;37.05;20.50;;;-1.00;99.90;;;;;;5105808;28;20104;-74
2021/01/25 07:53:52;;;;;;;35.60;21.30;;;-1.00;99.90;;;;;;5108393;28;20226;-74
2021/01/25 07:56:19;;;;;;;32.78;19.73;;;-0.90;99.90;;;;;;5105341;28;20066;-73
2021/01/25 07:58:47;;;;;;;31.50;18.83;;;-0.90;99.90;;;;;;5107308;28;20071;-73
2021/01/25 08:01:38;;;;;;;37.42;20.85;;;-0.80;99.90;;;;;;5108034;28;20040;-74
2021/01/25 08:04:11;;;;;;;32.60;19.10;;;-0.80;99.90;;;;;;5108464;28;20047;-74
2021/01/25 08:06:38;;;;;;;30.63;19.17;;;-0.80;99.90;;;;;;5105888;28;20044;-74
2021/01/25 08:09:10;;;;;;;31.92;19.30;;;-0.70;99.90;;;;;;5086367;28;20044;-73
2021/01/25 08:11:39;;;;;;;32.00;18.98;;;-0.60;99.90;;;;;;5095428;28;20130;-73
2021/01/25 08:14:24;;;;;;;28.20;17.67;;;-0.50;99.90;;;;;;5108323;28;20040;-74
2021/01/25 08:17:06;;;;;;;28.75;18.40;;;-0.50;99.90;;;;;;5107740;28;20130;-74
2021/01/25 08:19:48;;;;;;;22.00;14.75;;;-0.40;99.90;;;;;;5107602;28;20790;-74
2021/01/25 08:22:21;;;;;;;26.73;16.38;;;-0.30;99.90;;;;;;5106488;28;20450;-73
2021/01/25 08:25:01;;;;;;;23.02;15.02;;;-0.30;99.90;;;;;;5099979;28;20040;-74
2021/01/25 08:27:35;;;;;;;20.25;13.77;;;-0.20;99.90;;;;;;5105944;28;20062;-74
2021/01/25 08:30:13;;;;;;;17.05;11.75;;;-0.10;99.90;;;;;;5107470;28;20069;-74
2021/01/25 08:32:51;;;;;;;20.15;12.05;;;0.00;99.90;;;;;;5108056;28;20047;-74
2021/01/25 08:35:32;;;;;;;16.52;10.82;;;0.10;99.90;;;;;;5105778;28;20166;-74
2021/01/25 08:38:29;;;;;;;17.23;10.25;;;0.10;99.90;;;;;;5105455;28;20118;-73
2021/01/25 08:41:01;;;;;;;13.88;9.98;;;0.10;99.90;;;;;;5101592;28;20059;-73
2021/01/25 08:43:31;;;;;;;18.77;10.50;;;0.00;99.90;;;;;;5106415;28;20530;-74
2021/01/25 08:46:14;;;;;;;20.30;10.93;;;0.10;99.90;;;;;;5104312;28;20255;-74
2021/01/25 08:48:42;;;;;;;15.32;10.77;;;0.10;99.90;;;;;;5106504;28;20124;-74
2021/01/25 08:51:13;;;;;;;13.73;9.98;;;0.30;99.90;;;;;;5103447;28;20390;-73
2021/01/25 08:53:44;;;;;;;15.52;9.20;;;0.40;99.90;;;;;;5105913;27;20055;-73
2021/01/25 08:56:19;;;;;;;11.43;8.30;;;0.50;99.90;;;;;;5104471;28;20501;-73
2021/01/25 08:58:47;;;;;;;11.93;8.68;;;0.60;99.90;;;;;;5104822;28;20410;-73
2021/01/25 09:01:28;;;;;;;10.27;7.60;;;0.70;99.90;;;;;;5100424;28;20044;-74
2021/01/25 09:04:00;;;;;;;10.53;7.80;;;0.60;99.90;;;;;;5093634;28;20075;-74
2021/01/25 09:06:27;;;;;;;12.07;8.77;;;0.60;99.90;;;;;;5102572;28;20756;-73
2021/01/25 09:08:54;;;;;;;12.02;8.75;;;0.70;99.90;;;;;;5104036;28;20063;-73
2021/01/25 09:11:23;;;;;;;15.20;9.05;;;0.70;99.90;;;;;;5104361;28;20047;-74
2021/01/25 09:13:50;;;;;;;11.07;7.68;;;0.90;99.90;;;;;;5105367;28;20116;-73
2021/01/25 09:16:17;;;;;;;9.63;7.20;;;1.00;99.90;;;;;;5103406;28;20047;-73
2021/01/25 09:18:43;;;;;;;10.07;6.85;;;0.90;99.90;;;;;;5105489;28;20976;-72
2021/01/25 09:21:13;;;;;;;8.63;6.53;;;1.10;99.90;;;;;;5104773;28;20467;-74
2021/01/25 09:23:39;;;;;;;7.80;6.03;;;1.10;99.90;;;;;;5095012;28;20043;-73
2021/01/25 09:26:06;;;;;;;8.88;6.40;;;1.20;99.90;;;;;;5104599;28;20059;-72
2021/01/25 09:28:33;;;;;;;8.60;6.15;;;1.20;99.90;;;;;;5104850;28;20043;-72
2021/01/25 09:31:00;;;;;;;10.27;5.57;;;1.20;99.90;;;;;;5103771;28;20462;-73
2021/01/25 09:33:27;;;;;;;7.63;5.75;;;1.20;99.90;;;;;;5104947;28;20482;-74
2021/01/25 09:35:54;;;;;;;9.45;5.72;;;1.10;99.90;;;;;;5095137;28;20105;-73
2021/01/25 09:38:23;;;;;;;8.82;5.72;;;1.10;99.90;;;;;;5099004;28;20039;-74
2021/01/25 09:40:50;;;;;;;6.82;5.20;;;1.10;99.90;;;;;;5090398;28;20056;-73
2021/01/25 09:43:16;;;;;;;6.70;5.30;;;1.10;99.90;;;;;;5084846;28;20056;-74
2021/01/25 09:45:48;;;;;;;7.93;5.82;;;1.20;99.90;;;;;;5096735;28;20067;-74
2021/01/25 09:48:16;;;;;;;5.45;4.88;;;1.50;99.90;;;;;;5104427;28;20745;-73
2021/01/25 09:50:47;;;;;;;6.38;4.78;;;1.80;99.90;;;;;;5102578;28;20185;-74
2021/01/25 09:53:17;;;;;;;7.70;4.97;;;1.90;99.90;;;;;;5103322;28;20051;-74
2021/01/25 09:55:44;;;;;;;5.53;4.30;;;2.00;99.90;;;;;;5104198;27;20317;-75
2021/01/25 09:58:11;;;;;;;4.90;3.97;;;2.00;99.90;;;;;;5101338;28;20043;-73
2021/01/25 10:00:38;;;;;;;7.25;4.47;;;2.10;99.90;;;;;;5102982;28;20098;-73
2021/01/25 10:03:05;;;;;;;9.73;3.92;;;2.00;99.90;;;;;;5102712;28;20386;-74
2021/01/25 10:05:32;;;;;;;6.40;4.85;;;1.80;99.90;;;;;;5103121;28;20185;-74
2021/01/25 10:07:59;;;;;;;5.68;4.25;;;1.80;99.90;;;;;;5103921;28;20047;-73
2021/01/25 10:10:28;;;;;;;6.00;3.60;;;1.90;99.90;;;;;;5085498;28;20600;-74
2021/01/25 10:12:55;;;;;;;7.72;4.40;;;1.90;99.90;;;;;;5102885;28;20043;-73
2021/01/25 10:15:22;;;;;;;15.20;8.75;;;1.90;99.90;;;;;;5082508;28;20571;-74
2021/01/25 10:17:50;;;;;;;7.30;4.63;;;1.90;99.90;;;;;;5098345;28;20547;-73
2021/01/25 10:20:20;;;;;;;6.38;4.70;;;2.00;99.90;;;;;;5102485;28;20173;-73
2021/01/25 10:22:48;;;;;;;7.10;4.72;;;2.00;99.90;;;;;;5098814;28;20120;-73
2021/01/25 10:25:18;;;;;;;5.80;4.88;;;1.90;99.90;;;;;;5098696;28;20664;-73
2021/01/25 10:27:47;;;;;;;8.80;5.00;;;1.80;99.90;;;;;;5103420;28;20039;-73
2021/01/25 10:30:21;;;;;;;7.55;5.03;;;1.90;99.90;;;;;;5104038;28;20383;-73
2021/01/25 10:32:47;;;;;;;8.90;5.35;;;2.00;99.90;;;;;;5102867;28;20159;-72
2021/01/25 10:35:14;;;;;;;9.27;5.00;;;2.00;99.90;;;;;;5102108;28;20618;-73
2021/01/25 10:37:44;;;;;;;9.95;5.13;;;2.00;99.90;;;;;;5104197;28;20058;-74
2021/01/25 10:40:12;;;;;;;7.63;4.88;;;2.00;99.90;;;;;;5094364;28;20177;-74
2021/01/25 10:42:38;;;;;;;10.73;5.43;;;2.00;99.90;;;;;;5096385;28;20059;-74
2021/01/25 10:45:08;;;;;;;7.00;4.40;;;2.10;99.90;;;;;;5102493;28;20134;-73
2021/01/25 10:47:39;;;;;;;7.63;4.25;;;2.30;99.90;;;;;;5103505;28;20054;-73
2021/01/25 10:50:10;;;;;;;4.88;4.18;;;2.40;99.90;;;;;;5103572;28;20435;-73
2021/01/25 10:52:43;;;;;;;7.55;4.65;;;2.70;99.90;;;;;;5103565;28;20112;-73
2021/01/25 10:55:12;;;;;;;5.72;4.70;;;3.00;99.90;;;;;;5094243;28;20039;-73
2021/01/25 10:57:40;;;;;;;6.47;4.32;;;2.90;99.90;;;;;;5101960;28;20055;-73
2021/01/25 11:00:16;;;;;;;7.68;4.60;;;3.10;99.90;;;;;;5103565;28;20050;-73
2021/01/25 11:02:44;;;;;;;4.80;4.10;;;3.40;99.90;;;;;;5104116;28;20040;-72
2021/01/25 11:05:17;;;;;;;6.90;4.65;;;3.70;99.90;;;;;;5107532;28;20126;-73
2021/01/25 11:07:43;;;;;;;4.35;3.35;;;3.90;99.90;;;;;;5105817;28;20039;-73
2021/01/25 11:10:14;;;;;;;4.32;3.10;;;3.50;99.90;;;;;;5107949;28;20043;-73
2021/01/25 11:12:43;;;;;;;3.50;2.85;;;3.40;99.90;;;;;;5098148;28;20044;-72
2021/01/25 11:15:10;;;;;;;3.85;3.00;;;3.40;99.90;;;;;;5105868;28;20059;-73
2021/01/25 11:17:37;;;;;;;4.72;3.05;;;3.60;99.90;;;;;;5103922;28;20048;-72
2021/01/25 11:20:06;;;;;;;4.88;3.17;;;3.90;99.90;;;;;;5102441;28;20107;-73
2021/01/25 11:22:33;;;;;;;2.70;2.47;;;4.50;99.90;;;;;;5089113;28;20044;-75
2021/01/25 11:24:59;;;;;;;3.70;2.50;;;5.30;99.90;;;;;;5100295;28;20124;-73
2021/01/25 11:27:27;;;;;;;5.05;3.38;;;6.50;99.90;;;;;;5095098;28;20048;-73
2021/01/25 11:29:56;;;;;;;2.22;2.00;;;7.10;99.90;;;;;;5095933;28;20058;-74
2021/01/25 11:32:23;;;;;;;2.70;2.25;;;6.60;99.90;;;;;;5101454;28;20083;-74
2021/01/25 11:34:51;;;;;;;3.00;2.38;;;6.20;99.90;;;;;;5097123;28;20134;-72
2021/01/25 11:37:19;;;;;;;4.00;3.00;;;5.70;99.90;;;;;;5087319;28;20741;-73
2021/01/25 11:39:47;;;;;;;5.10;2.90;;;5.50;99.90;;;;;;5094194;28;20039;-72
2021/01/25 11:42:19;;;;;;;2.83;2.42;;;4.80;99.90;;;;;;5107296;28;20152;-74
2021/01/25 11:44:48;;;;;;;2.58;2.28;;;4.30;99.90;;;;;;5101125;28;20055;-74
2021/01/25 11:47:16;;;;;;;2.80;2.50;;;3.80;99.90;;;;;;5107303;28;20051;-74
2021/01/25 11:49:45;;;;;;;3.50;2.58;;;3.60;99.90;;;;;;5094694;28;20048;-75
2021/01/25 11:52:14;;;;;;;4.43;3.08;;;3.60;99.90;;;;;;5108539;28;20071;-74
2021/01/25 11:54:40;;;;;;;3.50;2.35;;;3.50;99.90;;;;;;5107263;28;20043;-74
2021/01/25 11:57:07;;;;;;;3.75;3.00;;;3.40;99.90;;;;;;5106014;28;20048;-73
2021/01/25 11:59:34;;;;;;;4.53;3.13;;;3.10;99.90;;;;;;5108334;28;20039;-74
2021/01/25 12:02:01;;;;;;;4.70;2.80;;;2.90;99.90;;;;;;5108811;28;20112;-74
2021/01/25 12:04:27;;;;;;;8.48;4.70;;;2.60;99.90;;;;;;5107017;28;20236;-74
2021/01/25 12:06:55;;;;;;;7.43;4.57;;;2.60;99.90;;;;;;5104370;28;20049;-74
2021/01/25 12:09:23;;;;;;;10.05;4.78;;;2.50;99.90;;;;;;5098504;28;20092;-74
2021/01/25 12:11:50;;;;;;;4.18;3.47;;;2.50;99.90;;;;;;5103587;28;20059;-74
2021/01/25 12:14:20;;;;;;;8.13;3.80;;;2.50;99.90;;;;;;5105982;28;20052;-75
2021/01/25 12:16:47;;;;;;;8.90;4.10;;;2.40;99.90;;;;;;5108383;28;20564;-74
2021/01/25 12:19:14;;;;;;;8.65;5.00;;;2.50;99.90;;;;;;5107145;28;20055;-73
2021/01/25 12:21:44;;;;;;;6.55;4.30;;;3.00;99.90;;;;;;5107463;28;20055;-74
2021/01/25 12:24:13;;;;;;;5.35;4.57;;;3.20;99.90;;;;;;5098828;28;20746;-74
2021/01/25 12:26:40;;;;;;;6.22;4.10;;;3.20;99.90;;;;;;5102854;28;20495;-75
2021/01/25 12:29:09;;;;;;;5.55;3.53;;;3.50;99.90;;;;;;5108592;28;20116;-75
2021/01/25 12:31:41;;;;;;;5.03;3.15;;;3.90;99.90;;;;;;5107219;28;20047;-75
2021/01/25 12:34:08;;;;;;;5.45;3.85;;;4.60;99.90;;;;;;5105076;28;20127;-75
2021/01/25 12:36:37;;;;;;;4.32;3.65;;;4.70;99.90;;;;;;5095100;28;20047;-76
2021/01/25 12:39:04;;;;;;;6.05;3.40;;;4.30;99.90;;;;;;5108037;28;20044;-73
2021/01/25 12:41:33;;;;;;;5.57;3.38;;;4.10;99.90;;;;;;5106577;28;20078;-75
2021/01/25 12:44:01;;;;;;;3.97;2.28;;;3.90;99.90;;;;;;5096904;28;20090;-75
2021/01/25 12:46:34;;;;;;;2.80;2.40;;;3.90;99.90;;;;;;5106038;28;20191;-74
2021/01/25 12:49:04;;;;;;;2.17;1.85;;;4.10;99.90;;;;;;5108150;28;20043;-76
2021/01/25 12:51:34;;;;;;;2.00;1.55;;;4.50;99.90;;;;;;5106474;28;20043;-75